Time;durP1;ratioP1;P1;durP2;ratioP2;P2;SDS_P1;SDS_P2;PMS_P1;PMS_P2;Temp;Humidity;BMP_temperature;BMP_pressure;BME280_temperature;BME280_humidity;BME280_pressure;Samples;Min_cycle;Max_cycle;Signal;HPM_P1;HPM_P2
2022/11/02 00:00:29;;;;;;;4.50;2.30;;;;;;;;;;4987651;28;20262;-62
2022/11/02 00:02:57;;;;;;;3.97;2.30;;;;;;;;;;4982511;28;20253;-62
2022/11/02 00:05:25;;;;;;;2.20;2.00;;;;;;;;;;4971754;28;20697;-63
2022/11/02 00:07:53;;;;;;;3.17;2.23;;;;;;;;;;4967933;28;20325;-63
2022/11/02 00:10:21;;;;;;;2.57;2.30;;;;;;;;;;4960342;28;20242;-63
2022/11/02 00:12:49;;;;;;;2.67;2.00;;;;;;;;;;4970158;28;20298;-62
2022/11/02 00:15:17;;;;;;;3.40;2.30;;;;;;;;;;4973802;28;20294;-63
2022/11/02 00:17:46;;;;;;;3.13;2.50;;;;;;;;;;4967645;28;20219;-63
2022/11/02 00:20:15;;;;;;;2.53;2.00;;;;;;;;;;4977112;28;20231;-62
2022/11/02 00:22:43;;;;;;;2.97;2.37;;;;;;;;;;4969031;28;20219;-62
2022/11/02 00:25:12;;;;;;;3.00;2.20;;;;;;;;;;4970981;28;20273;-63
2022/11/02 00:27:40;;;;;;;3.03;1.90;;;;;;;;;;4971788;28;20225;-63
2022/11/02 00:30:08;;;;;;;2.67;1.97;;;;;;;;;;4970681;28;20234;-63
2022/11/02 00:32:36;;;;;;;2.60;2.00;;;;;;;;;;4972449;28;20200;-63
2022/11/02 00:35:04;;;;;;;2.00;1.87;;;;;;;;;;4974688;28;20294;-63
2022/11/02 00:37:31;;;;;;;2.47;2.07;;;;;;;;;;4990069;28;20243;-63
2022/11/02 00:39:59;;;;;;;2.60;1.80;;;;;;;;;;4968625;28;21019;-63
2022/11/02 00:42:26;;;;;;;2.20;1.93;;;;;;;;;;4970776;28;20317;-62
2022/11/02 00:44:53;;;;;;;3.50;2.00;;;;;;;;;;4975915;28;20222;-62
2022/11/02 00:47:21;;;;;;;4.50;2.10;;;;;;;;;;4977735;28;20233;-63
2022/11/02 00:49:48;;;;;;;2.73;1.80;;;;;;;;;;4977041;28;20357;-63
2022/11/02 00:52:15;;;;;;;2.70;1.90;;;;;;;;;;4984724;28;20217;-63
2022/11/02 00:54:43;;;;;;;3.13;1.60;;;;;;;;;;4980029;28;20767;-63
2022/11/02 00:57:10;;;;;;;2.27;1.53;;;;;;;;;;4986822;28;20204;-62
2022/11/02 00:59:37;;;;;;;3.30;1.90;;;;;;;;;;4966886;28;20277;-62
2022/11/02 01:02:04;;;;;;;2.43;1.80;;;;;;;;;;4971800;28;20872;-63
2022/11/02 01:04:32;;;;;;;1.73;1.60;;;;;;;;;;4970725;28;20547;-63
2022/11/02 01:06:59;;;;;;;1.87;1.70;;;;;;;;;;4990768;28;20237;-63
2022/11/02 01:09:27;;;;;;;3.03;1.80;;;;;;;;;;4970014;28;21520;-63
2022/11/02 01:11:54;;;;;;;2.13;1.93;;;;;;;;;;4987959;28;20227;-64
2022/11/02 01:14:22;;;;;;;2.87;1.60;;;;;;;;;;4990509;28;20223;-62
2022/11/02 01:16:49;;;;;;;2.27;1.60;;;;;;;;;;4996819;28;20639;-62
2022/11/02 01:19:17;;;;;;;2.37;1.60;;;;;;;;;;4975737;28;20720;-63
2022/11/02 01:21:44;;;;;;;1.90;1.70;;;;;;;;;;4975090;28;20286;-62
2022/11/02 01:24:11;;;;;;;2.07;1.87;;;;;;;;;;4985567;28;20290;-63
2022/11/02 01:26:38;;;;;;;3.10;2.10;;;;;;;;;;4971907;28;20236;-62
2022/11/02 01:29:09;;;;;;;3.20;1.70;;;;;;;;;;4969819;28;20349;-61
2022/11/02 01:31:36;;;;;;;1.67;1.53;;;;;;;;;;4971523;28;20212;-62
2022/11/02 01:34:04;;;;;;;4.33;1.70;;;;;;;;;;4992099;28;20203;-63
2022/11/02 01:36:31;;;;;;;4.63;2.13;;;;;;;;;;4965803;28;21304;-62
2022/11/02 01:38:59;;;;;;;7.17;2.07;;;;;;;;;;4969708;28;20251;-63
2022/11/02 01:41:26;;;;;;;4.37;1.60;;;;;;;;;;4961632;28;20693;-62
2022/11/02 01:43:57;;;;;;;3.50;1.97;;;;;;;;;;4955084;28;20218;-63
2022/11/02 01:46:31;;;;;;;4.00;2.00;;;;;;;;;;4968279;28;20214;-63
2022/11/02 01:49:03;;;;;;;4.03;2.50;;;;;;;;;;4971705;28;20208;-64
2022/11/02 01:51:51;;;;;;;3.50;2.30;;;;;;;;;;4970746;28;20333;-62
2022/11/02 01:54:22;;;;;;;4.37;2.37;;;;;;;;;;4971097;28;20360;-61
2022/11/02 01:56:51;;;;;;;4.60;2.17;;;;;;;;;;4971968;28;20269;-63
2022/11/02 01:59:21;;;;;;;1.60;1.50;;;;;;;;;;4990113;28;20235;-63
2022/11/02 02:01:49;;;;;;;2.20;1.73;;;;;;;;;;4984114;28;20207;-62
2022/11/02 02:04:17;;;;;;;2.63;2.13;;;;;;;;;;4986491;28;20208;-63
2022/11/02 02:06:44;;;;;;;2.77;1.57;;;;;;;;;;4972641;28;20724;-61
2022/11/02 02:09:13;;;;;;;1.77;1.67;;;;;;;;;;4969377;28;20255;-63
2022/11/02 02:11:41;;;;;;;3.73;1.70;;;;;;;;;;4976604;28;20258;-62
2022/11/02 02:14:13;;;;;;;5.77;1.83;;;;;;;;;;4997308;28;20215;-63
2022/11/02 02:16:59;;;;;;;2.43;1.70;;;;;;;;;;4976151;28;20212;-62
2022/11/02 02:19:31;;;;;;;1.83;1.70;;;;;;;;;;4970048;28;20648;-62
2022/11/02 02:22:08;;;;;;;2.27;1.70;;;;;;;;;;4974479;28;20933;-63
2022/11/02 02:24:44;;;;;;;4.23;2.07;;;;;;;;;;4976171;28;20339;-63
2022/11/02 02:27:14;;;;;;;2.40;1.63;;;;;;;;;;4969831;28;20227;-63
2022/11/02 02:30:00;;;;;;;2.40;1.50;;;;;;;;;;4985335;28;20263;-61
2022/11/02 02:32:33;;;;;;;2.67;1.73;;;;;;;;;;4969065;28;20212;-62
2022/11/02 02:35:07;;;;;;;1.70;1.40;;;;;;;;;;4967460;28;20204;-62
2022/11/02 02:37:46;;;;;;;3.63;1.83;;;;;;;;;;4970420;28;21660;-63
2022/11/02 02:40:17;;;;;;;2.80;1.87;;;;;;;;;;4962311;28;20238;-63
2022/11/02 02:42:56;;;;;;;2.33;1.60;;;;;;;;;;4970685;28;20298;-63
2022/11/02 02:45:32;;;;;;;2.83;1.43;;;;;;;;;;4977797;28;20322;-62
2022/11/02 02:48:03;;;;;;;1.70;1.60;;;;;;;;;;4981169;28;20254;-63
2022/11/02 02:50:37;;;;;;;2.57;1.97;;;;;;;;;;4971541;28;20232;-63
2022/11/02 02:53:06;;;;;;;5.23;2.50;;;;;;;;;;4994269;28;20242;-64
2022/11/02 02:55:37;;;;;;;4.53;2.87;;;;;;;;;;4972401;28;20291;-63
2022/11/02 02:58:06;;;;;;;3.20;2.30;;;;;;;;;;4985789;28;20330;-63
2022/11/02 03:00:35;;;;;;;1.80;1.50;;;;;;;;;;4969340;28;20263;-64
2022/11/02 03:03:04;;;;;;;3.53;1.80;;;;;;;;;;4959522;28;20319;-62
2022/11/02 03:05:36;;;;;;;3.63;1.60;;;;;;;;;;4971527;28;20217;-63
2022/11/02 03:08:07;;;;;;;5.63;1.90;;;;;;;;;;4971111;28;20227;-62
2022/11/02 03:10:39;;;;;;;5.50;1.87;;;;;;;;;;4969715;28;20227;-63
2022/11/02 03:13:10;;;;;;;4.30;1.97;;;;;;;;;;4953273;28;21293;-62
2022/11/02 03:15:37;;;;;;;3.93;1.97;;;;;;;;;;4977718;28;20204;-62
2022/11/02 03:18:05;;;;;;;3.97;2.03;;;;;;;;;;4974353;28;20852;-62
2022/11/02 03:20:33;;;;;;;3.73;2.00;;;;;;;;;;4998501;28;20319;-62
2022/11/02 03:23:09;;;;;;;4.13;1.77;;;;;;;;;;4980287;28;20729;-63
2022/11/02 03:25:37;;;;;;;6.63;1.87;;;;;;;;;;4985427;28;20302;-63
2022/11/02 03:28:16;;;;;;;2.80;1.70;;;;;;;;;;4967845;28;21640;-63
2022/11/02 03:30:46;;;;;;;4.57;1.80;;;;;;;;;;4971456;28;20340;-63
2022/11/02 03:33:19;;;;;;;5.07;2.00;;;;;;;;;;4972389;28;20219;-62
2022/11/02 03:35:51;;;;;;;2.07;1.67;;;;;;;;;;4967184;28;20277;-62
2022/11/02 03:38:20;;;;;;;1.87;1.60;;;;;;;;;;4975023;28;20277;-63
2022/11/02 03:40:50;;;;;;;1.60;1.50;;;;;;;;;;4974849;28;20223;-62
2022/11/02 03:43:19;;;;;;;3.50;1.80;;;;;;;;;;4985148;28;20269;-62
2022/11/02 03:45:52;;;;;;;2.10;1.70;;;;;;;;;;4979289;28;20637;-63
2022/11/02 03:48:21;;;;;;;1.77;1.60;;;;;;;;;;4964452;28;20401;-62
2022/11/02 03:50:50;;;;;;;5.83;2.00;;;;;;;;;;4967388;28;20235;-62
2022/11/02 03:53:29;;;;;;;4.73;2.10;;;;;;;;;;4969419;28;20302;-63
2022/11/02 03:56:02;;;;;;;2.83;2.50;;;;;;;;;;4992620;28;20214;-63
2022/11/02 03:58:29;;;;;;;4.27;2.20;;;;;;;;;;4969012;28;20216;-63
2022/11/02 04:00:59;;;;;;;2.50;2.30;;;;;;;;;;4969069;28;20231;-62
2022/11/02 04:03:27;;;;;;;5.07;2.30;;;;;;;;;;4976246;28;20254;-63
2022/11/02 04:05:54;;;;;;;4.57;1.87;;;;;;;;;;4969115;28;20203;-63
2022/11/02 04:08:28;;;;;;;2.40;1.80;;;;;;;;;;4967422;28;20259;-63
2022/11/02 04:16:28;;;;;;;2.90;1.70;;;;;;;;;;4990516;28;20362;-63
2022/11/02 04:25:14;;;;;;;2.90;1.80;;;;;;;;;;4979308;28;20203;-63
2022/11/02 04:27:14;;;;;;;3.70;1.93;;;;;;;;;;4979201;28;22066;-62
2022/11/02 04:29:47;;;;;;;3.23;1.93;;;;;;;;;;4984815;28;20285;-64
2022/11/02 04:33:31;;;;;;;5.67;2.00;;;;;;;;;;4975180;28;20278;-63
2022/11/02 04:35:02;;;;;;;3.67;2.00;;;;;;;;;;4986070;28;20302;-63
2022/11/02 04:40:17;;;;;;;3.00;1.70;;;;;;;;;;4987073;28;21306;-63
2022/11/02 04:42:48;;;;;;;2.20;1.60;;;;;;;;;;4964459;28;20298;-63
2022/11/02 04:45:15;;;;;;;4.43;3.00;;;;;;;;;;4979326;28;20674;-62
2022/11/02 04:47:42;;;;;;;3.97;2.20;;;;;;;;;;4974967;28;20294;-63
2022/11/02 04:50:11;;;;;;;3.27;2.03;;;;;;;;;;4983517;28;20804;-63
2022/11/02 04:52:38;;;;;;;5.03;2.23;;;;;;;;;;4978727;28;20214;-63
2022/11/02 04:55:06;;;;;;;4.63;3.30;;;;;;;;;;4985547;28;20303;-63
2022/11/02 04:57:33;;;;;;;7.07;5.37;;;;;;;;;;4969268;28;20211;-61
2022/11/02 05:00:01;;;;;;;4.40;2.40;;;;;;;;;;5003984;28;20242;-63
2022/11/02 05:02:28;;;;;;;6.43;2.83;;;;;;;;;;4974989;28;20312;-63
2022/11/02 05:04:56;;;;;;;6.33;2.83;;;;;;;;;;4971338;28;20269;-64
2022/11/02 05:07:23;;;;;;;3.13;2.30;;;;;;;;;;4992735;28;20266;-62
2022/11/02 05:09:50;;;;;;;5.47;2.80;;;;;;;;;;4973706;28;20642;-62
2022/11/02 05:12:18;;;;;;;7.07;2.73;;;;;;;;;;4980584;28;20199;-63
2022/11/02 05:14:46;;;;;;;6.30;2.60;;;;;;;;;;4971478;28;20219;-63
2022/11/02 05:17:15;;;;;;;4.03;2.73;;;;;;;;;;4972002;28;20234;-63
2022/11/02 05:19:42;;;;;;;6.93;2.87;;;;;;;;;;4986511;28;20273;-62
2022/11/02 05:22:09;;;;;;;6.43;3.10;;;;;;;;;;4972203;28;20311;-62
2022/11/02 05:24:37;;;;;;;5.40;3.00;;;;;;;;;;4972652;28;20258;-62
2022/11/02 05:27:04;;;;;;;6.67;3.47;;;;;;;;;;4963984;28;20692;-62
2022/11/02 05:29:31;;;;;;;5.20;3.13;;;;;;;;;;4969366;28;20274;-62
2022/11/02 05:31:59;;;;;;;4.10;3.57;;;;;;;;;;4968629;28;20212;-62
2022/11/02 05:34:26;;;;;;;6.07;3.57;;;;;;;;;;4972084;28;20203;-62
2022/11/02 05:36:54;;;;;;;8.23;3.60;;;;;;;;;;4972565;28;20215;-63
2022/11/02 05:39:22;;;;;;;6.17;3.83;;;;;;;;;;4963681;28;20259;-62
2022/11/02 05:41:49;;;;;;;4.33;3.93;;;;;;;;;;4964053;28;20682;-63
2022/11/02 05:44:17;;;;;;;7.40;4.00;;;;;;;;;;4972775;28;20311;-62
2022/11/02 05:46:44;;;;;;;7.43;4.20;;;;;;;;;;4971785;28;20218;-62
2022/11/02 05:49:12;;;;;;;11.40;7.50;;;;;;;;;;4967391;28;20236;-62
2022/11/02 05:51:39;;;;;;;8.73;5.13;;;;;;;;;;4981818;28;20242;-62
2022/11/02 05:54:06;;;;;;;6.63;4.50;;;;;;;;;;4968232;28;20299;-62
2022/11/02 05:56:34;;;;;;;9.73;5.03;;;;;;;;;;4968112;28;20281;-62
2022/11/02 05:59:02;;;;;;;8.50;4.10;;;;;;;;;;4967879;28;20438;-62
2022/11/02 06:01:29;;;;;;;8.77;4.40;;;;;;;;;;4963968;28;20662;-62
2022/11/02 06:03:56;;;;;;;4.40;4.00;;;;;;;;;;4964869;28;20246;-61
2022/11/02 06:06:24;;;;;;;4.70;4.07;;;;;;;;;;4971860;28;20290;-62
2022/11/02 06:08:51;;;;;;;9.57;3.93;;;;;;;;;;4966478;28;20273;-62
2022/11/02 06:11:19;;;;;;;6.27;3.80;;;;;;;;;;4987065;28;20211;-62
2022/11/02 06:13:49;;;;;;;4.80;3.80;;;;;;;;;;4990511;28;20243;-62
2022/11/02 06:16:17;;;;;;;8.73;4.33;;;;;;;;;;4976851;28;20234;-62
2022/11/02 06:18:49;;;;;;;9.67;4.60;;;;;;;;;;4968247;28;20616;-62
2022/11/02 06:21:16;;;;;;;7.23;4.37;;;;;;;;;;4968054;28;20235;-62
2022/11/02 06:23:46;;;;;;;6.37;3.80;;;;;;;;;;4968593;28;20211;-62
2022/11/02 06:26:13;;;;;;;8.37;4.47;;;;;;;;;;4971932;28;20874;-63
2022/11/02 06:28:40;;;;;;;5.80;4.27;;;;;;;;;;4970622;28;20886;-61
2022/11/02 06:31:08;;;;;;;8.67;5.50;;;;;;;;;;4973150;28;20694;-63
2022/11/02 06:33:35;;;;;;;9.60;5.33;;;;;;;;;;4966725;28;20665;-63
2022/11/02 06:36:03;;;;;;;8.70;5.27;;;;;;;;;;4971442;28;20208;-62
2022/11/02 06:38:30;;;;;;;7.07;5.77;;;;;;;;;;4965220;28;20219;-63
2022/11/02 06:40:59;;;;;;;11.47;6.03;;;;;;;;;;4966320;28;20232;-62
2022/11/02 06:43:26;;;;;;;8.87;6.10;;;;;;;;;;4971848;28;20231;-63
2022/11/02 06:45:54;;;;;;;11.93;5.93;;;;;;;;;;4960821;28;20618;-62
2022/11/02 06:48:23;;;;;;;9.27;5.90;;;;;;;;;;4969749;28;20281;-62
2022/11/02 06:50:59;;;;;;;7.23;5.90;;;;;;;;;;4966851;28;21204;-63
2022/11/02 06:53:26;;;;;;;6.60;5.87;;;;;;;;;;4973306;28;20298;-62
2022/11/02 06:55:54;;;;;;;6.90;5.60;;;;;;;;;;4970283;28;20692;-62
2022/11/02 06:58:24;;;;;;;6.40;5.50;;;;;;;;;;4969573;28;20550;-62
2022/11/02 07:01:06;;;;;;;6.67;4.90;;;;;;;;;;4971086;28;20241;-63
2022/11/02 07:03:33;;;;;;;8.13;5.13;;;;;;;;;;4970024;28;20215;-61
2022/11/02 07:06:01;;;;;;;6.60;5.00;;;;;;;;;;4971503;28;20208;-63
2022/11/02 07:08:29;;;;;;;6.23;5.40;;;;;;;;;;4972700;28;20259;-62
2022/11/02 07:10:56;;;;;;;7.77;4.63;;;;;;;;;;4971845;28;20716;-63
2022/11/02 07:13:24;;;;;;;8.27;4.70;;;;;;;;;;4978963;28;20242;-62
2022/11/02 07:15:52;;;;;;;9.00;4.73;;;;;;;;;;4988967;28;20203;-62
2022/11/02 07:18:20;;;;;;;5.90;4.90;;;;;;;;;;4977941;28;20215;-63
2022/11/02 07:20:47;;;;;;;5.37;4.47;;;;;;;;;;4969005;28;20883;-63
2022/11/02 07:23:14;;;;;;;6.10;4.23;;;;;;;;;;4987331;28;20302;-62
2022/11/02 07:25:42;;;;;;;8.50;4.57;;;;;;;;;;4973731;28;20266;-62
2022/11/02 07:28:09;;;;;;;6.17;4.73;;;;;;;;;;4968770;28;20237;-62
2022/11/02 07:30:36;;;;;;;7.87;4.23;;;;;;;;;;4965787;28;20245;-62
2022/11/02 07:33:04;;;;;;;7.63;3.93;;;;;;;;;;4968222;28;20719;-63
2022/11/02 07:35:33;;;;;;;6.10;4.43;;;;;;;;;;4969207;28;20211;-63
2022/11/02 07:38:01;;;;;;;10.63;4.33;;;;;;;;;;4969119;28;20207;-63
2022/11/02 07:40:29;;;;;;;7.80;3.97;;;;;;;;;;4984951;28;20311;-63
2022/11/02 07:42:57;;;;;;;9.93;4.50;;;;;;;;;;4967309;28;20211;-63
2022/11/02 07:45:24;;;;;;;6.00;3.67;;;;;;;;;;4969575;28;20219;-61
2022/11/02 07:47:53;;;;;;;9.77;4.00;;;;;;;;;;4968234;28;20212;-63
2022/11/02 07:50:21;;;;;;;9.77;5.57;;;;;;;;;;4983831;28;21307;-62
2022/11/02 07:52:50;;;;;;;6.10;4.67;;;;;;;;;;4962676;28;20218;-62
2022/11/02 07:55:18;;;;;;;5.30;3.97;;;;;;;;;;4988574;28;20298;-62
2022/11/02 07:57:56;;;;;;;6.07;4.23;;;;;;;;;;4967838;28;20223;-63
2022/11/02 08:00:25;;;;;;;6.83;3.13;;;;;;;;;;4967792;28;20227;-62
2022/11/02 08:02:56;;;;;;;8.13;2.97;;;;;;;;;;4967478;28;20215;-63
2022/11/02 08:05:24;;;;;;;8.73;3.27;;;;;;;;;;4970669;28;20203;-62
2022/11/02 08:07:59;;;;;;;8.43;2.60;;;;;;;;;;4975015;28;20219;-63
2022/11/02 08:10:26;;;;;;;6.63;2.70;;;;;;;;;;4967628;28;20241;-63
2022/11/02 08:12:54;;;;;;;7.70;2.80;;;;;;;;;;4964843;28;20239;-63
2022/11/02 08:15:22;;;;;;;3.83;2.30;;;;;;;;;;4970571;28;20284;-64
2022/11/02 08:18:00;;;;;;;4.20;1.90;;;;;;;;;;4982291;28;20211;-62
2022/11/02 08:20:29;;;;;;;5.40;2.23;;;;;;;;;;4970272;28;20318;-61
2022/11/02 08:22:57;;;;;;;7.00;2.10;;;;;;;;;;4964675;28;20222;-63
2022/11/02 08:25:25;;;;;;;8.13;2.57;;;;;;;;;;4967330;28;20211;-63
2022/11/02 08:27:55;;;;;;;5.70;2.00;;;;;;;;;;4971740;28;20269;-63
2022/11/02 08:30:23;;;;;;;4.17;2.00;;;;;;;;;;4966564;28;20231;-63
2022/11/02 08:32:51;;;;;;;5.03;1.97;;;;;;;;;;4968312;28;20546;-63
2022/11/02 08:35:23;;;;;;;4.20;1.87;;;;;;;;;;4980429;28;20211;-61
2022/11/02 08:37:54;;;;;;;3.63;1.70;;;;;;;;;;4971424;28;20338;-61
2022/11/02 08:40:22;;;;;;;5.50;1.70;;;;;;;;;;4967642;28;20306;-63
2022/11/02 08:42:55;;;;;;;7.07;2.00;;;;;;;;;;4963206;28;20215;-63
2022/11/02 08:45:22;;;;;;;7.57;1.63;;;;;;;;;;4970730;28;20332;-62
2022/11/02 08:47:49;;;;;;;6.87;1.60;;;;;;;;;;4987754;28;20216;-63
2022/11/02 08:50:17;;;;;;;3.73;1.30;;;;;;;;;;4993933;28;20231;-63
2022/11/02 08:52:44;;;;;;;3.43;1.50;;;;;;;;;;4998468;28;20202;-62
2022/11/02 08:55:12;;;;;;;5.13;1.50;;;;;;;;;;4982918;28;20299;-63
2022/11/02 08:57:50;;;;;;;4.83;1.30;;;;;;;;;;4978304;28;20294;-62
2022/11/02 09:00:18;;;;;;;4.00;1.30;;;;;;;;;;4977765;28;20224;-63
2022/11/02 09:02:58;;;;;;;3.03;1.30;;;;;;;;;;4976739;28;20199;-62
2022/11/02 09:05:26;;;;;;;4.23;1.43;;;;;;;;;;4999574;28;20672;-62
2022/11/02 09:07:58;;;;;;;4.10;1.70;;;;;;;;;;4974334;28;20362;-63
2022/11/02 09:10:26;;;;;;;3.80;1.30;;;;;;;;;;4983473;28;20725;-63
2022/11/02 09:12:54;;;;;;;4.60;1.20;;;;;;;;;;4982086;28;20199;-63
2022/11/02 09:15:21;;;;;;;4.00;1.33;;;;;;;;;;4998331;28;20215;-63
2022/11/02 09:17:49;;;;;;;2.03;1.23;;;;;;;;;;4975089;28;20303;-63
2022/11/02 09:20:17;;;;;;;4.27;1.40;;;;;;;;;;4983260;28;20969;-63
2022/11/02 09:22:45;;;;;;;4.20;1.43;;;;;;;;;;4994057;28;20673;-63
2022/11/02 09:25:13;;;;;;;2.73;1.23;;;;;;;;;;4982143;28;20950;-61
2022/11/02 09:27:40;;;;;;;3.47;1.17;;;;;;;;;;5003381;28;20689;-62
2022/11/02 09:30:08;;;;;;;3.70;1.10;;;;;;;;;;4980326;28;20700;-63
2022/11/02 09:32:36;;;;;;;5.27;1.27;;;;;;;;;;4984424;28;20240;-63
2022/11/02 09:35:05;;;;;;;2.77;1.13;;;;;;;;;;4998926;28;20950;-63
2022/11/02 09:37:32;;;;;;;2.53;1.07;;;;;;;;;;4981110;28;20533;-63
2022/11/02 09:40:00;;;;;;;4.47;1.57;;;;;;;;;;4979130;28;20656;-63
2022/11/02 09:42:46;;;;;;;4.00;2.10;;;;;;;;;;4992752;28;20312;-61
2022/11/02 09:45:15;;;;;;;4.53;1.60;;;;;;;;;;4972692;28;20303;-63
2022/11/02 09:47:44;;;;;;;7.80;2.27;;;;;;;;;;4965925;28;20219;-62
2022/11/02 09:51:04;;;;;;;3.57;1.50;;;;;;;;;;4965277;28;20610;-63
2022/11/02 09:53:41;;;;;;;14.37;5.43;;;;;;;;;;4962445;28;20763;-61
2022/11/02 09:56:10;;;;;;;5.80;2.27;;;;;;;;;;4972146;28;20210;-61
2022/11/02 09:58:39;;;;;;;3.27;1.47;;;;;;;;;;4992633;28;20211;-63
2022/11/02 10:01:18;;;;;;;2.70;1.57;;;;;;;;;;4967053;28;20228;-62
2022/11/02 10:03:53;;;;;;;8.73;2.10;;;;;;;;;;4973190;28;20285;-64
2022/11/02 10:06:22;;;;;;;3.23;1.37;;;;;;;;;;4973272;28;20216;-64
2022/11/02 10:09:11;;;;;;;4.40;1.93;;;;;;;;;;4971281;28;20228;-63
2022/11/02 10:12:02;;;;;;;4.13;1.70;;;;;;;;;;4988974;28;20354;-63
2022/11/02 10:14:32;;;;;;;2.03;1.40;;;;;;;;;;4987453;28;20747;-63
2022/11/02 10:17:13;;;;;;;3.90;1.50;;;;;;;;;;4975585;28;20313;-63
2022/11/02 10:19:42;;;;;;;3.57;1.53;;;;;;;;;;4974359;28;20227;-63
2022/11/02 10:22:11;;;;;;;6.67;1.50;;;;;;;;;;4970203;28;20216;-63
2022/11/02 10:24:49;;;;;;;2.53;1.40;;;;;;;;;;4973050;28;20204;-64
2022/11/02 10:27:22;;;;;;;4.40;1.60;;;;;;;;;;4974500;28;20262;-61
2022/11/02 10:29:49;;;;;;;6.27;1.47;;;;;;;;;;4986486;28;20243;-61
2022/11/02 10:32:17;;;;;;;4.87;2.07;;;;;;;;;;4977515;28;20682;-63
2022/11/02 10:34:45;;;;;;;3.03;1.50;;;;;;;;;;4971693;28;20341;-62
2022/11/02 10:37:40;;;;;;;4.43;1.30;;;;;;;;;;4975221;28;20686;-62
2022/11/02 10:40:15;;;;;;;3.40;1.53;;;;;;;;;;4978222;28;21166;-62
2022/11/02 10:43:02;;;;;;;5.23;1.60;;;;;;;;;;4971513;28;20239;-63
2022/11/02 10:45:44;;;;;;;4.30;1.57;;;;;;;;;;4977664;28;20623;-63
2022/11/02 10:48:30;;;;;;;4.83;1.87;;;;;;;;;;4982724;28;20660;-63
2022/11/02 10:51:08;;;;;;;4.60;2.00;;;;;;;;;;4986393;28;20254;-62
2022/11/02 10:53:38;;;;;;;4.00;1.37;;;;;;;;;;5003215;28;20299;-63
2022/11/02 10:56:11;;;;;;;3.53;1.50;;;;;;;;;;4989160;28;20200;-61
2022/11/02 10:58:40;;;;;;;5.10;1.83;;;;;;;;;;4988976;28;20745;-63
2022/11/02 11:01:11;;;;;;;3.50;1.40;;;;;;;;;;4989759;28;20304;-64
2022/11/02 11:03:55;;;;;;;3.90;1.47;;;;;;;;;;5001519;28;20224;-62
2022/11/02 11:06:26;;;;;;;2.10;1.30;;;;;;;;;;4961130;28;20257;-63
2022/11/02 11:08:58;;;;;;;2.83;1.40;;;;;;;;;;4977797;28;20199;-63
2022/11/02 11:11:26;;;;;;;2.70;2.40;;;;;;;;;;4961297;28;20208;-62
2022/11/02 11:13:57;;;;;;;3.13;1.50;;;;;;;;;;4995045;28;20310;-64
2022/11/02 11:17:11;;;;;;;3.93;1.87;;;;;;;;;;4984057;28;20230;-63
2022/11/02 11:19:59;;;;;;;2.90;1.70;;;;;;;;;;4987909;28;20725;-63
2022/11/02 11:22:33;;;;;;;2.40;1.63;;;;;;;;;;4973664;28;20214;-62
2022/11/02 11:25:12;;;;;;;4.47;1.70;;;;;;;;;;5001977;28;20350;-62
2022/11/02 11:27:47;;;;;;;4.50;1.60;;;;;;;;;;5002182;28;20231;-64
2022/11/02 11:30:33;;;;;;;6.07;2.63;;;;;;;;;;4979030;28;20421;-63
2022/11/02 11:33:21;;;;;;;3.70;1.50;;;;;;;;;;4980795;28;20222;-61
2022/11/02 11:35:50;;;;;;;6.67;2.67;;;;;;;;;;4971564;28;20208;-63
2022/11/02 11:38:19;;;;;;;4.80;1.90;;;;;;;;;;4973278;28;20289;-62
2022/11/02 11:40:48;;;;;;;3.07;1.60;;;;;;;;;;4978208;28;20234;-63
2022/11/02 11:43:16;;;;;;;4.07;1.40;;;;;;;;;;4976591;28;20212;-63
2022/11/02 11:45:54;;;;;;;3.53;1.67;;;;;;;;;;4967612;28;20227;-63
2022/11/02 11:48:32;;;;;;;4.93;1.50;;;;;;;;;;4983892;28;20227;-63
2022/11/02 11:51:02;;;;;;;5.93;1.67;;;;;;;;;;4988574;28;20573;-63
2022/11/02 11:53:30;;;;;;;3.33;1.43;;;;;;;;;;4967770;28;20203;-62
2022/11/02 11:55:59;;;;;;;6.30;1.50;;;;;;;;;;4976817;28;20620;-62
2022/11/02 11:58:28;;;;;;;4.40;1.50;;;;;;;;;;4975399;28;20793;-63
2022/11/02 12:01:16;;;;;;;5.37;1.53;;;;;;;;;;4971272;28;20632;-65
2022/11/02 12:03:50;;;;;;;6.23;1.57;;;;;;;;;;4972684;28;20216;-63
2022/11/02 12:06:20;;;;;;;2.67;1.23;;;;;;;;;;4970289;28;20278;-62
2022/11/02 12:09:11;;;;;;;3.70;1.73;;;;;;;;;;4973744;28;20338;-63
2022/11/02 12:11:57;;;;;;;2.97;1.13;;;;;;;;;;4969360;28;20737;-62
2022/11/02 12:14:28;;;;;;;3.07;1.37;;;;;;;;;;4967966;28;20518;-62
2022/11/02 12:17:05;;;;;;;6.50;2.70;;;;;;;;;;4971416;28;20290;-63
2022/11/02 12:19:59;;;;;;;4.10;1.20;;;;;;;;;;4965898;28;20230;-62
2022/11/02 12:22:41;;;;;;;1.50;1.40;;;;;;;;;;4962063;28;20203;-62
2022/11/02 12:25:11;;;;;;;3.23;1.73;;;;;;;;;;4951478;28;20251;-63
2022/11/02 12:27:42;;;;;;;5.23;1.53;;;;;;;;;;4968223;28;20216;-63
2022/11/02 12:30:20;;;;;;;3.93;1.33;;;;;;;;;;4967632;28;20329;-63
2022/11/02 12:32:50;;;;;;;2.10;1.33;;;;;;;;;;4962138;28;20199;-63
2022/11/02 12:35:21;;;;;;;2.47;1.20;;;;;;;;;;4968714;28;20267;-64
2022/11/02 12:37:55;;;;;;;4.63;1.63;;;;;;;;;;4977739;28;20206;-64
2022/11/02 12:40:35;;;;;;;4.20;1.23;;;;;;;;;;4964198;28;20654;-63
2022/11/02 12:43:05;;;;;;;2.93;1.40;;;;;;;;;;4971571;28;20302;-63
2022/11/02 12:45:39;;;;;;;5.15;2.17;;;;;;;;;;4979379;28;20232;-64
2022/11/02 12:48:09;;;;;;;5.03;1.85;;;;;;;;;;4989377;28;20752;-63
2022/11/02 12:50:55;;;;;;;3.67;1.50;;;;;;;;;;4992048;28;20235;-64
2022/11/02 12:53:28;;;;;;;4.15;2.20;;;;;;;;;;4981465;28;20451;-63
2022/11/02 12:55:58;;;;;;;4.32;1.60;;;;;;;;;;4985043;28;20207;-64
2022/11/02 12:58:27;;;;;;;2.70;1.25;;;;;;;;;;4986319;28;20230;-63
2022/11/02 13:00:57;;;;;;;3.20;1.20;;;;;;;;;;4984854;28;20262;-63
2022/11/02 13:03:34;;;;;;;3.22;1.15;;;;;;;;;;4987156;28;20214;-64
2022/11/02 13:06:06;;;;;;;4.93;1.30;;;;;;;;;;4977331;28;20689;-64
2022/11/02 13:08:36;;;;;;;3.33;1.30;;;;;;;;;;4970005;28;20543;-64
2022/11/02 13:11:10;;;;;;;6.43;1.77;;;;;;;;;;4967080;28;20253;-63
2022/11/02 13:13:45;;;;;;;3.42;1.20;;;;;;;;;;4996501;28;20195;-63
2022/11/02 13:16:14;;;;;;;4.72;1.35;;;;;;;;;;4989087;28;20681;-63
2022/11/02 13:18:52;;;;;;;4.57;1.60;;;;;;;;;;4969759;28;20681;-63
2022/11/02 13:21:27;;;;;;;5.25;1.40;;;;;;;;;;4989896;28;20235;-63
2022/11/02 13:23:56;;;;;;;5.35;1.88;;;;;;;;;;4980786;28;20533;-63
2022/11/02 13:26:29;;;;;;;3.03;1.30;;;;;;;;;;4975024;28;20319;-63
2022/11/02 13:29:06;;;;;;;3.42;1.60;;;;;;;;;;4973982;28;20255;-60
2022/11/02 13:31:59;;;;;;;5.35;1.88;;;;;;;;;;4972100;28;20231;-63
2022/11/02 13:34:35;;;;;;;4.78;1.30;;;;;;;;;;4965475;28;20204;-64
2022/11/02 13:37:18;;;;;;;4.10;1.50;;;;;;;;;;4988584;28;20195;-63
2022/11/02 13:39:48;;;;;;;4.72;1.15;;;;;;;;;;4990587;28;20876;-63
2022/11/02 13:42:31;;;;;;;3.00;1.35;;;;;;;;;;4974940;28;22418;-64
2022/11/02 13:45:18;;;;;;;3.15;1.02;;;;;;;;;;4990053;28;20310;-65
2022/11/02 13:47:58;;;;;;;3.20;1.38;;;;;;;;;;4992101;28;20216;-64
2022/11/02 13:50:27;;;;;;;5.65;1.58;;;;;;;;;;4989122;28;20239;-65
2022/11/02 13:52:57;;;;;;;1.70;1.38;;;;;;;;;;4977269;28;20211;-64
2022/11/02 13:55:28;;;;;;;6.20;1.52;;;;;;;;;;4978767;28;20235;-63
2022/11/02 13:57:57;;;;;;;7.30;3.47;;;;;;;;;;4966532;28;20719;-63
2022/11/02 14:00:24;;;;;;;8.43;3.60;;;;;;;;;;4979811;28;20224;-63
2022/11/02 14:02:55;;;;;;;17.63;8.82;;;;;;;;;;4967983;28;20678;-64
2022/11/02 14:05:28;;;;;;;7.40;3.35;;;;;;;;;;4964864;28;20233;-64
2022/11/02 14:08:00;;;;;;;5.32;1.70;;;;;;;;;;4968774;28;20203;-63
2022/11/02 14:10:27;;;;;;;6.40;2.65;;;;;;;;;;4971510;28;20254;-63
2022/11/02 14:12:55;;;;;;;9.27;3.47;;;;;;;;;;4986194;28;20616;-64
2022/11/02 14:15:22;;;;;;;3.70;1.80;;;;;;;;;;4986917;28;20325;-62
2022/11/02 14:17:53;;;;;;;4.25;1.60;;;;;;;;;;4989450;28;21105;-63
2022/11/02 14:20:35;;;;;;;4.15;1.70;;;;;;;;;;4968888;28;20697;-63
2022/11/02 14:23:13;;;;;;;4.38;1.50;;;;;;;;;;4973500;28;20305;-63
2022/11/02 14:25:53;;;;;;;3.08;1.70;;;;;;;;;;4972375;28;20216;-64
2022/11/02 14:28:28;;;;;;;3.17;1.20;;;;;;;;;;4976266;28;20658;-63
2022/11/02 14:31:05;;;;;;;2.92;1.50;;;;;;;;;;4973554;28;20365;-64
2022/11/02 14:33:53;;;;;;;6.13;1.40;;;;;;;;;;4990339;28;20210;-63
2022/11/02 14:36:32;;;;;;;5.90;2.60;;;;;;;;;;4973011;28;20358;-63
2022/11/02 14:38:59;;;;;;;9.23;3.97;;;;;;;;;;4974234;28;20200;-63
2022/11/02 14:41:45;;;;;;;4.10;1.75;;;;;;;;;;4991547;28;20270;-64
2022/11/02 14:44:31;;;;;;;3.70;2.00;;;;;;;;;;4992787;28;20208;-63
2022/11/02 14:47:07;;;;;;;19.83;9.75;;;;;;;;;;4982155;28;20773;-64
2022/11/02 14:49:40;;;;;;;18.25;8.73;;;;;;;;;;4984441;28;20317;-63
2022/11/02 14:52:13;;;;;;;14.50;9.00;;;;;;;;;;4976383;28;20214;-64
2022/11/02 14:54:56;;;;;;;3.45;2.50;;;;;;;;;;4998189;28;20203;-63
2022/11/02 14:57:32;;;;;;;4.63;3.08;;;;;;;;;;4984463;28;20691;-64
2022/11/02 15:00:02;;;;;;;5.05;1.75;;;;;;;;;;4996925;28;20231;-63
2022/11/02 15:02:38;;;;;;;3.17;1.27;;;;;;;;;;4977719;28;20736;-63
2022/11/02 15:05:19;;;;;;;3.42;1.52;;;;;;;;;;4969085;28;20212;-64
2022/11/02 15:08:16;;;;;;;2.00;1.40;;;;;;;;;;4964546;28;20211;-64
2022/11/02 15:10:45;;;;;;;8.27;1.70;;;;;;;;;;4972046;28;20848;-63
2022/11/02 15:13:18;;;;;;;2.63;1.20;;;;;;;;;;4961348;28;20212;-64
2022/11/02 15:16:06;;;;;;;4.93;2.80;;;;;;;;;;4971800;28;20207;-62
2022/11/02 15:18:35;;;;;;;5.18;2.50;;;;;;;;;;4958725;28;20199;-63
2022/11/02 15:21:11;;;;;;;3.55;1.50;;;;;;;;;;4969323;28;20291;-64
2022/11/02 15:23:54;;;;;;;2.92;1.30;;;;;;;;;;4980280;28;20219;-64